Terminal Aerodrome Forecast
Issued by NWS

Home | Current Version | Previous Version | Text Only | Print | Product List | Glossary On
Versions: 1 2 3 4 5 6 7 8 9 10 11 12
000
FTUS45 KRIW 181700
TAFBPI
TAF
KBPI 181720Z 1818/1918 VRB05KT P6SM SKC
     FM190600 34004KT P6SM VCFG FEW035
     FM191500 VRB04KT P6SM FEW040 SCT150=

USA.gov is the U.S. government's official web portal to all federal, state and local government web resources and services.